sensor_id;sensor_type;location;lat;lon;timestamp;P1;durP1;ratioP1;P2;durP2;ratioP2
18507;SDS011;9383;50.928;12.116;2022-11-15T00:02:10;10.60;;;9.55;;
18507;SDS011;9383;50.928;12.116;2022-11-15T00:04:37;11.95;;;10.70;;
18507;SDS011;9383;50.928;12.116;2022-11-15T00:07:03;9.73;;;8.85;;
18507;SDS011;9383;50.928;12.116;2022-11-15T00:09:30;10.80;;;9.70;;
18507;SDS011;9383;50.928;12.116;2022-11-15T00:11:56;10.23;;;9.23;;
18507;SDS011;9383;50.928;12.116;2022-11-15T00:14:23;10.88;;;9.88;;
18507;SDS011;9383;50.928;12.116;2022-11-15T00:16:49;10.50;;;9.60;;
18507;SDS011;9383;50.928;12.116;2022-11-15T00:19:16;10.23;;;9.23;;
18507;SDS011;9383;50.928;12.116;2022-11-15T00:21:43;9.68;;;8.68;;
18507;SDS011;9383;50.928;12.116;2022-11-15T00:24:09;10.02;;;9.10;;
18507;SDS011;9383;50.928;12.116;2022-11-15T00:26:36;10.05;;;9.10;;
18507;SDS011;9383;50.928;12.116;2022-11-15T00:29:02;10.40;;;9.40;;
18507;SDS011;9383;50.928;12.116;2022-11-15T00:31:28;10.90;;;9.80;;
18507;SDS011;9383;50.928;12.116;2022-11-15T00:33:56;10.70;;;9.32;;
18507;SDS011;9383;50.928;12.116;2022-11-15T00:36:22;9.95;;;8.95;;
18507;SDS011;9383;50.928;12.116;2022-11-15T00:38:48;9.93;;;9.02;;
18507;SDS011;9383;50.928;12.116;2022-11-15T00:41:15;10.32;;;9.40;;
18507;SDS011;9383;50.928;12.116;2022-11-15T00:43:42;10.80;;;9.80;;
18507;SDS011;9383;50.928;12.116;2022-11-15T00:46:09;10.45;;;9.45;;
18507;SDS011;9383;50.928;12.116;2022-11-15T00:48:36;11.48;;;10.38;;
18507;SDS011;9383;50.928;12.116;2022-11-15T00:51:02;10.60;;;9.60;;
18507;SDS011;9383;50.928;12.116;2022-11-15T00:53:29;10.55;;;9.52;;
18507;SDS011;9383;50.928;12.116;2022-11-15T00:55:55;11.18;;;10.07;;
18507;SDS011;9383;50.928;12.116;2022-11-15T00:58:21;10.85;;;9.15;;
18507;SDS011;9383;50.928;12.116;2022-11-15T01:00:48;10.85;;;9.65;;
18507;SDS011;9383;50.928;12.116;2022-11-15T01:03:14;10.85;;;9.75;;
18507;SDS011;9383;50.928;12.116;2022-11-15T01:05:41;10.32;;;9.25;;
18507;SDS011;9383;50.928;12.116;2022-11-15T01:08:14;10.43;;;9.15;;
18507;SDS011;9383;50.928;12.116;2022-11-15T01:10:42;11.07;;;9.98;;
18507;SDS011;9383;50.928;12.116;2022-11-15T01:13:08;10.43;;;9.43;;
18507;SDS011;9383;50.928;12.116;2022-11-15T01:15:38;10.52;;;9.48;;
18507;SDS011;9383;50.928;12.116;2022-11-15T01:18:05;10.10;;;9.20;;
18507;SDS011;9383;50.928;12.116;2022-11-15T01:20:32;11.00;;;9.38;;
18507;SDS011;9383;50.928;12.116;2022-11-15T01:22:59;10.35;;;9.35;;
18507;SDS011;9383;50.928;12.116;2022-11-15T01:25:26;10.73;;;9.30;;
18507;SDS011;9383;50.928;12.116;2022-11-15T01:27:53;10.27;;;9.07;;
18507;SDS011;9383;50.928;12.116;2022-11-15T01:30:20;11.18;;;9.32;;
18507;SDS011;9383;50.928;12.116;2022-11-15T01:32:46;10.60;;;9.60;;
18507;SDS011;9383;50.928;12.116;2022-11-15T01:35:13;10.60;;;9.60;;
18507;SDS011;9383;50.928;12.116;2022-11-15T01:37:40;9.85;;;8.85;;
18507;SDS011;9383;50.928;12.116;2022-11-15T01:40:07;10.43;;;9.02;;
18507;SDS011;9383;50.928;12.116;2022-11-15T01:42:34;10.90;;;9.90;;
18507;SDS011;9383;50.928;12.116;2022-11-15T01:45:00;9.82;;;8.82;;
18507;SDS011;9383;50.928;12.116;2022-11-15T01:47:35;10.40;;;9.05;;
18507;SDS011;9383;50.928;12.116;2022-11-15T01:50:14;10.50;;;9.05;;
18507;SDS011;9383;50.928;12.116;2022-11-15T01:52:45;10.15;;;9.15;;
18507;SDS011;9383;50.928;12.116;2022-11-15T01:55:16;9.75;;;8.85;;
18507;SDS011;9383;50.928;12.116;2022-11-15T01:57:47;10.07;;;9.07;;
18507;SDS011;9383;50.928;12.116;2022-11-15T02:00:18;10.38;;;9.40;;
18507;SDS011;9383;50.928;12.116;2022-11-15T02:02:44;10.13;;;9.10;;
18507;SDS011;9383;50.928;12.116;2022-11-15T02:05:11;10.07;;;9.18;;
18507;SDS011;9383;50.928;12.116;2022-11-15T02:07:38;9.35;;;8.45;;
18507;SDS011;9383;50.928;12.116;2022-11-15T02:10:09;9.82;;;8.82;;
18507;SDS011;9383;50.928;12.116;2022-11-15T02:12:38;11.40;;;9.63;;
18507;SDS011;9383;50.928;12.116;2022-11-15T02:15:06;11.00;;;9.57;;
18507;SDS011;9383;50.928;12.116;2022-11-15T02:17:38;10.27;;;9.38;;
18507;SDS011;9383;50.928;12.116;2022-11-15T02:26:41;10.85;;;9.77;;
18507;SDS011;9383;50.928;12.116;2022-11-15T02:29:45;10.55;;;9.57;;
18507;SDS011;9383;50.928;12.116;2022-11-15T02:35:37;9.98;;;8.98;;
18507;SDS011;9383;50.928;12.116;2022-11-15T02:40:57;10.52;;;9.52;;
18507;SDS011;9383;50.928;12.116;2022-11-15T02:46:23;11.45;;;10.25;;
18507;SDS011;9383;50.928;12.116;2022-11-15T02:49:23;10.55;;;9.55;;
18507;SDS011;9383;50.928;12.116;2022-11-15T02:51:53;10.73;;;9.63;;
18507;SDS011;9383;50.928;12.116;2022-11-15T02:54:22;11.27;;;9.18;;
18507;SDS011;9383;50.928;12.116;2022-11-15T02:56:53;10.50;;;9.50;;
18507;SDS011;9383;50.928;12.116;2022-11-15T02:59:50;10.68;;;9.57;;
18507;SDS011;9383;50.928;12.116;2022-11-15T03:05:16;10.75;;;9.65;;
18507;SDS011;9383;50.928;12.116;2022-11-15T03:10:36;10.18;;;9.25;;
18507;SDS011;9383;50.928;12.116;2022-11-15T03:13:16;11.88;;;9.60;;
18507;SDS011;9383;50.928;12.116;2022-11-15T03:15:49;10.10;;;9.10;;
18507;SDS011;9383;50.928;12.116;2022-11-15T03:18:30;10.63;;;9.52;;
18507;SDS011;9383;50.928;12.116;2022-11-15T03:21:01;10.10;;;9.05;;
18507;SDS011;9383;50.928;12.116;2022-11-15T03:23:32;10.00;;;9.00;;
18507;SDS011;9383;50.928;12.116;2022-11-15T03:26:00;12.23;;;10.15;;
18507;SDS011;9383;50.928;12.116;2022-11-15T03:28:41;10.13;;;9.13;;
18507;SDS011;9383;50.928;12.116;2022-11-15T03:31:21;10.00;;;9.00;;
18507;SDS011;9383;50.928;12.116;2022-11-15T03:34:10;10.32;;;9.32;;
18507;SDS011;9383;50.928;12.116;2022-11-15T03:36:48;9.70;;;8.75;;
18507;SDS011;9383;50.928;12.116;2022-11-15T03:39:16;9.82;;;8.85;;
18507;SDS011;9383;50.928;12.116;2022-11-15T03:41:45;9.77;;;8.77;;
18507;SDS011;9383;50.928;12.116;2022-11-15T03:47:16;10.20;;;9.18;;
18507;SDS011;9383;50.928;12.116;2022-11-15T03:49:55;9.80;;;8.80;;
18507;SDS011;9383;50.928;12.116;2022-11-15T03:52:26;9.20;;;8.40;;
18507;SDS011;9383;50.928;12.116;2022-11-15T03:54:59;9.15;;;8.27;;
18507;SDS011;9383;50.928;12.116;2022-11-15T03:57:28;10.10;;;9.10;;
18507;SDS011;9383;50.928;12.116;2022-11-15T03:59:56;8.93;;;8.02;;
18507;SDS011;9383;50.928;12.116;2022-11-15T04:02:23;9.07;;;8.18;;
18507;SDS011;9383;50.928;12.116;2022-11-15T04:04:50;9.73;;;8.82;;
18507;SDS011;9383;50.928;12.116;2022-11-15T04:07:18;9.18;;;8.25;;
18507;SDS011;9383;50.928;12.116;2022-11-15T04:09:44;8.82;;;7.95;;
18507;SDS011;9383;50.928;12.116;2022-11-15T04:12:43;9.00;;;8.20;;
18507;SDS011;9383;50.928;12.116;2022-11-15T04:15:16;9.48;;;8.52;;
18507;SDS011;9383;50.928;12.116;2022-11-15T04:17:52;10.25;;;8.43;;
18507;SDS011;9383;50.928;12.116;2022-11-15T04:20:27;8.48;;;7.65;;
18507;SDS011;9383;50.928;12.116;2022-11-15T04:23:14;9.85;;;8.82;;
18507;SDS011;9383;50.928;12.116;2022-11-15T04:26:02;9.90;;;8.90;;
18507;SDS011;9383;50.928;12.116;2022-11-15T04:28:35;10.57;;;9.30;;
18507;SDS011;9383;50.928;12.116;2022-11-15T04:31:22;10.30;;;9.30;;
18507;SDS011;9383;50.928;12.116;2022-11-15T04:33:49;9.55;;;8.30;;
18507;SDS011;9383;50.928;12.116;2022-11-15T04:36:16;10.25;;;9.15;;
18507;SDS011;9383;50.928;12.116;2022-11-15T04:39:01;9.60;;;8.60;;
18507;SDS011;9383;50.928;12.116;2022-11-15T04:41:27;9.55;;;8.65;;
18507;SDS011;9383;50.928;12.116;2022-11-15T04:43:54;11.07;;;9.38;;
18507;SDS011;9383;50.928;12.116;2022-11-15T04:46:21;9.48;;;8.40;;
18507;SDS011;9383;50.928;12.116;2022-11-15T04:48:49;8.75;;;7.85;;
18507;SDS011;9383;50.928;12.116;2022-11-15T04:51:17;9.10;;;8.13;;
18507;SDS011;9383;50.928;12.116;2022-11-15T04:53:43;8.65;;;7.85;;
18507;SDS011;9383;50.928;12.116;2022-11-15T04:56:10;9.38;;;8.48;;
18507;SDS011;9383;50.928;12.116;2022-11-15T04:58:37;9.68;;;7.78;;
18507;SDS011;9383;50.928;12.116;2022-11-15T05:01:10;9.38;;;8.32;;
18507;SDS011;9383;50.928;12.116;2022-11-15T05:03:40;8.60;;;7.68;;
18507;SDS011;9383;50.928;12.116;2022-11-15T05:06:26;8.43;;;7.63;;
18507;SDS011;9383;50.928;12.116;2022-11-15T05:08:53;9.85;;;8.18;;
18507;SDS011;9383;50.928;12.116;2022-11-15T05:11:20;8.60;;;7.80;;
18507;SDS011;9383;50.928;12.116;2022-11-15T05:13:46;8.25;;;7.50;;
18507;SDS011;9383;50.928;12.116;2022-11-15T05:16:13;8.80;;;7.97;;
18507;SDS011;9383;50.928;12.116;2022-11-15T05:18:40;8.77;;;7.82;;
18507;SDS011;9383;50.928;12.116;2022-11-15T05:21:08;8.40;;;7.60;;
18507;SDS011;9383;50.928;12.116;2022-11-15T05:23:36;8.23;;;7.53;;
18507;SDS011;9383;50.928;12.116;2022-11-15T05:26:04;8.18;;;7.40;;
18507;SDS011;9383;50.928;12.116;2022-11-15T05:28:31;8.63;;;7.78;;
18507;SDS011;9383;50.928;12.116;2022-11-15T05:31:06;8.57;;;6.85;;
18507;SDS011;9383;50.928;12.116;2022-11-15T05:33:38;7.70;;;7.00;;
18507;SDS011;9383;50.928;12.116;2022-11-15T05:38:57;8.20;;;7.32;;
18507;SDS011;9383;50.928;12.116;2022-11-15T05:41:27;8.00;;;7.20;;
18507;SDS011;9383;50.928;12.116;2022-11-15T05:44:20;8.38;;;7.57;;
18507;SDS011;9383;50.928;12.116;2022-11-15T05:46:49;7.63;;;6.93;;
18507;SDS011;9383;50.928;12.116;2022-11-15T05:49:19;8.45;;;7.57;;
18507;SDS011;9383;50.928;12.116;2022-11-15T05:51:48;7.45;;;6.75;;
18507;SDS011;9383;50.928;12.116;2022-11-15T05:54:16;8.60;;;7.70;;
18507;SDS011;9383;50.928;12.116;2022-11-15T05:56:45;7.60;;;6.88;;
18507;SDS011;9383;50.928;12.116;2022-11-15T05:59:12;8.63;;;7.72;;
18507;SDS011;9383;50.928;12.116;2022-11-15T06:01:39;8.25;;;7.45;;
18507;SDS011;9383;50.928;12.116;2022-11-15T06:04:06;8.95;;;8.05;;
18507;SDS011;9383;50.928;12.116;2022-11-15T06:06:32;8.63;;;7.72;;
18507;SDS011;9383;50.928;12.116;2022-11-15T06:08:58;8.77;;;7.97;;
18507;SDS011;9383;50.928;12.116;2022-11-15T06:11:25;9.65;;;7.90;;
18507;SDS011;9383;50.928;12.116;2022-11-15T06:13:51;8.32;;;7.30;;
18507;SDS011;9383;50.928;12.116;2022-11-15T06:16:18;8.65;;;7.25;;
18507;SDS011;9383;50.928;12.116;2022-11-15T06:18:45;8.50;;;7.70;;
18507;SDS011;9383;50.928;12.116;2022-11-15T06:21:11;9.20;;;8.38;;
18507;SDS011;9383;50.928;12.116;2022-11-15T06:23:38;10.20;;;7.55;;
18507;SDS011;9383;50.928;12.116;2022-11-15T06:26:04;9.20;;;7.28;;
18507;SDS011;9383;50.928;12.116;2022-11-15T06:28:32;8.48;;;7.65;;
18507;SDS011;9383;50.928;12.116;2022-11-15T06:31:02;8.05;;;7.35;;
18507;SDS011;9383;50.928;12.116;2022-11-15T06:33:30;7.82;;;7.13;;
18507;SDS011;9383;50.928;12.116;2022-11-15T06:36:01;6.80;;;6.20;;
18507;SDS011;9383;50.928;12.116;2022-11-15T06:38:35;7.78;;;7.05;;
18507;SDS011;9383;50.928;12.116;2022-11-15T06:41:02;7.88;;;7.18;;
18507;SDS011;9383;50.928;12.116;2022-11-15T06:43:31;8.00;;;6.80;;
18507;SDS011;9383;50.928;12.116;2022-11-15T06:45:58;8.50;;;6.90;;
18507;SDS011;9383;50.928;12.116;2022-11-15T06:48:28;6.88;;;6.28;;
18507;SDS011;9383;50.928;12.116;2022-11-15T06:50:57;8.70;;;7.15;;
18507;SDS011;9383;50.928;12.116;2022-11-15T06:53:25;7.35;;;6.57;;
18507;SDS011;9383;50.928;12.116;2022-11-15T06:55:53;7.05;;;6.35;;
18507;SDS011;9383;50.928;12.116;2022-11-15T06:58:26;6.90;;;6.20;;
18507;SDS011;9383;50.928;12.116;2022-11-15T07:00:52;7.72;;;6.35;;
18507;SDS011;9383;50.928;12.116;2022-11-15T07:03:23;7.82;;;6.88;;
18507;SDS011;9383;50.928;12.116;2022-11-15T07:05:50;6.95;;;6.25;;
18507;SDS011;9383;50.928;12.116;2022-11-15T07:08:22;6.40;;;5.90;;
18507;SDS011;9383;50.928;12.116;2022-11-15T07:10:50;7.10;;;6.40;;
18507;SDS011;9383;50.928;12.116;2022-11-15T07:13:17;6.32;;;5.80;;
18507;SDS011;9383;50.928;12.116;2022-11-15T07:15:44;7.68;;;6.18;;
18507;SDS011;9383;50.928;12.116;2022-11-15T07:18:10;7.10;;;5.90;;
18507;SDS011;9383;50.928;12.116;2022-11-15T07:20:37;6.32;;;5.82;;
18507;SDS011;9383;50.928;12.116;2022-11-15T07:23:10;6.30;;;5.80;;
18507;SDS011;9383;50.928;12.116;2022-11-15T07:25:37;6.60;;;6.00;;
18507;SDS011;9383;50.928;12.116;2022-11-15T07:28:03;6.75;;;6.15;;
18507;SDS011;9383;50.928;12.116;2022-11-15T07:30:30;5.95;;;5.45;;
18507;SDS011;9383;50.928;12.116;2022-11-15T07:32:59;5.80;;;5.20;;
18507;SDS011;9383;50.928;12.116;2022-11-15T07:35:28;6.05;;;5.55;;
18507;SDS011;9383;50.928;12.116;2022-11-15T07:38:00;6.00;;;5.47;;
18507;SDS011;9383;50.928;12.116;2022-11-15T07:40:28;5.45;;;4.97;;
18507;SDS011;9383;50.928;12.116;2022-11-15T07:43:03;5.63;;;5.13;;
18507;SDS011;9383;50.928;12.116;2022-11-15T07:45:31;5.28;;;4.82;;
18507;SDS011;9383;50.928;12.116;2022-11-15T07:48:01;5.40;;;4.90;;
18507;SDS011;9383;50.928;12.116;2022-11-15T07:50:29;5.35;;;4.95;;
18507;SDS011;9383;50.928;12.116;2022-11-15T07:52:57;4.90;;;4.50;;
18507;SDS011;9383;50.928;12.116;2022-11-15T07:55:25;4.90;;;4.50;;
18507;SDS011;9383;50.928;12.116;2022-11-15T07:58:04;5.13;;;4.63;;
18507;SDS011;9383;50.928;12.116;2022-11-15T08:00:33;4.38;;;4.07;;
18507;SDS011;9383;50.928;12.116;2022-11-15T08:03:03;4.90;;;4.50;;
18507;SDS011;9383;50.928;12.116;2022-11-15T08:05:34;4.93;;;4.53;;
18507;SDS011;9383;50.928;12.116;2022-11-15T08:08:03;5.13;;;4.72;;
18507;SDS011;9383;50.928;12.116;2022-11-15T08:10:30;5.40;;;4.90;;
18507;SDS011;9383;50.928;12.116;2022-11-15T08:13:00;4.85;;;4.50;;
18507;SDS011;9383;50.928;12.116;2022-11-15T08:15:28;4.70;;;4.30;;
18507;SDS011;9383;50.928;12.116;2022-11-15T08:17:56;5.22;;;4.75;;
18507;SDS011;9383;50.928;12.116;2022-11-15T08:20:24;5.00;;;4.60;;
18507;SDS011;9383;50.928;12.116;2022-11-15T08:22:52;5.50;;;5.00;;
18507;SDS011;9383;50.928;12.116;2022-11-15T08:25:19;5.10;;;4.70;;
18507;SDS011;9383;50.928;12.116;2022-11-15T08:27:46;5.43;;;4.93;;
18507;SDS011;9383;50.928;12.116;2022-11-15T08:30:12;5.22;;;4.82;;
18507;SDS011;9383;50.928;12.116;2022-11-15T08:32:41;5.00;;;4.60;;
18507;SDS011;9383;50.928;12.116;2022-11-15T08:35:08;5.05;;;4.65;;
18507;SDS011;9383;50.928;12.116;2022-11-15T08:37:34;4.63;;;4.32;;
18507;SDS011;9383;50.928;12.116;2022-11-15T08:40:02;4.93;;;4.40;;
18507;SDS011;9383;50.928;12.116;2022-11-15T08:42:30;5.55;;;4.93;;
18507;SDS011;9383;50.928;12.116;2022-11-15T08:44:56;4.95;;;4.55;;
18507;SDS011;9383;50.928;12.116;2022-11-15T08:47:23;4.63;;;4.22;;
18507;SDS011;9383;50.928;12.116;2022-11-15T08:49:49;5.00;;;4.50;;
18507;SDS011;9383;50.928;12.116;2022-11-15T08:52:17;5.38;;;4.88;;
18507;SDS011;9383;50.928;12.116;2022-11-15T08:54:44;5.70;;;5.20;;
18507;SDS011;9383;50.928;12.116;2022-11-15T08:57:11;5.28;;;4.78;;
18507;SDS011;9383;50.928;12.116;2022-11-15T08:59:38;4.80;;;4.35;;
18507;SDS011;9383;50.928;12.116;2022-11-15T09:02:05;5.47;;;4.47;;
18507;SDS011;9383;50.928;12.116;2022-11-15T09:04:31;4.93;;;4.53;;
18507;SDS011;9383;50.928;12.116;2022-11-15T09:06:58;4.72;;;4.32;;
18507;SDS011;9383;50.928;12.116;2022-11-15T09:09:24;4.53;;;4.15;;
18507;SDS011;9383;50.928;12.116;2022-11-15T09:11:52;5.05;;;4.63;;
18507;SDS011;9383;50.928;12.116;2022-11-15T09:14:18;5.25;;;4.72;;
18507;SDS011;9383;50.928;12.116;2022-11-15T09:16:45;4.72;;;4.32;;
18507;SDS011;9383;50.928;12.116;2022-11-15T09:19:11;5.13;;;4.63;;
18507;SDS011;9383;50.928;12.116;2022-11-15T09:21:40;4.97;;;4.57;;
18507;SDS011;9383;50.928;12.116;2022-11-15T09:24:06;4.97;;;4.57;;
18507;SDS011;9383;50.928;12.116;2022-11-15T09:26:34;4.07;;;3.78;;
18507;SDS011;9383;50.928;12.116;2022-11-15T09:29:00;4.53;;;4.13;;
18507;SDS011;9383;50.928;12.116;2022-11-15T09:31:27;4.65;;;4.28;;
18507;SDS011;9383;50.928;12.116;2022-11-15T09:33:55;4.22;;;3.85;;
18507;SDS011;9383;50.928;12.116;2022-11-15T09:36:22;4.05;;;3.75;;
18507;SDS011;9383;50.928;12.116;2022-11-15T09:38:49;4.57;;;4.18;;
18507;SDS011;9383;50.928;12.116;2022-11-15T09:46:54;3.90;;;3.60;;
18507;SDS011;9383;50.928;12.116;2022-11-15T09:49:54;5.00;;;3.40;;
18507;SDS011;9383;50.928;12.116;2022-11-15T09:52:25;4.47;;;3.72;;
18507;SDS011;9383;50.928;12.116;2022-11-15T09:54:56;4.40;;;3.58;;
18507;SDS011;9383;50.928;12.116;2022-11-15T09:57:30;4.28;;;3.90;;
18507;SDS011;9383;50.928;12.116;2022-11-15T10:00:13;3.30;;;3.10;;
18507;SDS011;9383;50.928;12.116;2022-11-15T10:05:23;4.50;;;3.70;;
18507;SDS011;9383;50.928;12.116;2022-11-15T10:07:57;4.10;;;3.50;;
18507;SDS011;9383;50.928;12.116;2022-11-15T10:10:46;4.20;;;3.63;;
18507;SDS011;9383;50.928;12.116;2022-11-15T10:13:17;3.20;;;3.00;;
18507;SDS011;9383;50.928;12.116;2022-11-15T10:15:51;6.05;;;3.90;;
18507;SDS011;9383;50.928;12.116;2022-11-15T10:18:35;4.05;;;3.75;;
18507;SDS011;9383;50.928;12.116;2022-11-15T10:21:20;3.92;;;3.60;;
18507;SDS011;9383;50.928;12.116;2022-11-15T10:26:55;3.80;;;3.50;;
18507;SDS011;9383;50.928;12.116;2022-11-15T10:29:22;4.75;;;3.97;;
18507;SDS011;9383;50.928;12.116;2022-11-15T10:31:50;3.75;;;3.45;;
18507;SDS011;9383;50.928;12.116;2022-11-15T10:34:18;3.47;;;3.28;;
18507;SDS011;9383;50.928;12.116;2022-11-15T10:36:53;3.47;;;3.15;;
18507;SDS011;9383;50.928;12.116;2022-11-15T10:39:23;3.15;;;2.92;;
18507;SDS011;9383;50.928;12.116;2022-11-15T10:41:50;3.08;;;2.78;;
18507;SDS011;9383;50.928;12.116;2022-11-15T10:44:18;4.38;;;3.17;;
18507;SDS011;9383;50.928;12.116;2022-11-15T10:51:58;3.38;;;3.10;;
18507;SDS011;9383;50.928;12.116;2022-11-15T10:54:38;3.28;;;2.80;;
18507;SDS011;9383;50.928;12.116;2022-11-15T10:57:17;2.95;;;2.75;;
18507;SDS011;9383;50.928;12.116;2022-11-15T10:59:48;4.05;;;3.08;;
18507;SDS011;9383;50.928;12.116;2022-11-15T11:02:28;2.53;;;2.33;;
18507;SDS011;9383;50.928;12.116;2022-11-15T11:04:56;4.88;;;2.70;;
18507;SDS011;9383;50.928;12.116;2022-11-15T11:07:30;3.33;;;3.05;;
18507;SDS011;9383;50.928;12.116;2022-11-15T11:10:32;3.08;;;2.88;;
18507;SDS011;9383;50.928;12.116;2022-11-15T11:12:53;2.85;;;2.65;;
18507;SDS011;9383;50.928;12.116;2022-11-15T11:15:20;3.28;;;2.97;;
18507;SDS011;9383;50.928;12.116;2022-11-15T11:20:32;3.70;;;3.30;;
18507;SDS011;9383;50.928;12.116;2022-11-15T11:26:08;3.05;;;2.85;;
18507;SDS011;9383;50.928;12.116;2022-11-15T11:34:41;3.00;;;2.67;;
18507;SDS011;9383;50.928;12.116;2022-11-15T11:40:14;3.25;;;2.67;;
18507;SDS011;9383;50.928;12.116;2022-11-15T11:45:58;2.63;;;2.42;;
18507;SDS011;9383;50.928;12.116;2022-11-15T11:48:57;3.20;;;2.60;;
18507;SDS011;9383;50.928;12.116;2022-11-15T11:51:43;2.90;;;2.60;;
18507;SDS011;9383;50.928;12.116;2022-11-15T11:57:17;3.17;;;2.88;;
18507;SDS011;9383;50.928;12.116;2022-11-15T12:02:41;2.75;;;2.55;;
18507;SDS011;9383;50.928;12.116;2022-11-15T12:05:30;2.90;;;2.70;;
18507;SDS011;9383;50.928;12.116;2022-11-15T12:11:14;2.47;;;2.30;;
18507;SDS011;9383;50.928;12.116;2022-11-15T12:13:50;2.90;;;2.70;;
18507;SDS011;9383;50.928;12.116;2022-11-15T12:16:27;2.53;;;2.42;;
18507;SDS011;9383;50.928;12.116;2022-11-15T12:18:56;2.90;;;2.70;;
18507;SDS011;9383;50.928;12.116;2022-11-15T12:21:41;4.53;;;2.63;;
18507;SDS011;9383;50.928;12.116;2022-11-15T12:24:22;5.00;;;2.67;;
18507;SDS011;9383;50.928;12.116;2022-11-15T12:26:52;2.78;;;2.58;;
18507;SDS011;9383;50.928;12.116;2022-11-15T12:29:26;3.47;;;2.45;;
18507;SDS011;9383;50.928;12.116;2022-11-15T12:31:54;2.50;;;2.40;;
18507;SDS011;9383;50.928;12.116;2022-11-15T12:42:35;2.28;;;2.17;;
18507;SDS011;9383;50.928;12.116;2022-11-15T12:45:23;2.53;;;2.42;;
18507;SDS011;9383;50.928;12.116;2022-11-15T12:48:23;2.60;;;2.40;;
18507;SDS011;9383;50.928;12.116;2022-11-15T12:56:35;2.55;;;2.35;;
18507;SDS011;9383;50.928;12.116;2022-11-15T12:58:44;2.50;;;2.30;;
18507;SDS011;9383;50.928;12.116;2022-11-15T13:12:50;2.30;;;2.05;;
18507;SDS011;9383;50.928;12.116;2022-11-15T13:15:00;2.40;;;2.20;;
18507;SDS011;9383;50.928;12.116;2022-11-15T13:22:40;2.00;;;1.90;;
18507;SDS011;9383;50.928;12.116;2022-11-15T13:27:59;3.13;;;1.98;;
18507;SDS011;9383;50.928;12.116;2022-11-15T13:30:55;2.15;;;1.95;;
18507;SDS011;9383;50.928;12.116;2022-11-15T13:33:34;2.47;;;2.08;;
18507;SDS011;9383;50.928;12.116;2022-11-15T13:36:36;3.17;;;1.90;;
18507;SDS011;9383;50.928;12.116;2022-11-15T13:39:12;1.98;;;1.88;;
18507;SDS011;9383;50.928;12.116;2022-11-15T13:41:50;2.78;;;2.00;;
18507;SDS011;9383;50.928;12.116;2022-11-15T13:44:19;2.35;;;2.13;;
18507;SDS011;9383;50.928;12.116;2022-11-15T13:46:47;1.90;;;1.70;;
18507;SDS011;9383;50.928;12.116;2022-11-15T13:49:14;1.90;;;1.80;;
18507;SDS011;9383;50.928;12.116;2022-11-15T13:51:47;2.95;;;1.90;;
18507;SDS011;9383;50.928;12.116;2022-11-15T13:57:05;2.63;;;1.95;;
18507;SDS011;9383;50.928;12.116;2022-11-15T13:59:44;2.28;;;2.17;;
18507;SDS011;9383;50.928;12.116;2022-11-15T14:02:15;2.85;;;2.38;;
18507;SDS011;9383;50.928;12.116;2022-11-15T14:04:48;4.50;;;2.30;;
18507;SDS011;9383;50.928;12.116;2022-11-15T14:07:19;2.45;;;2.25;;
18507;SDS011;9383;50.928;12.116;2022-11-15T14:09:48;2.28;;;2.10;;
18507;SDS011;9383;50.928;12.116;2022-11-15T14:12:25;2.65;;;2.20;;
18507;SDS011;9383;50.928;12.116;2022-11-15T14:15:17;3.50;;;2.35;;
18507;SDS011;9383;50.928;12.116;2022-11-15T14:17:51;2.45;;;2.28;;
18507;SDS011;9383;50.928;12.116;2022-11-15T14:20:31;2.60;;;2.40;;
18507;SDS011;9383;50.928;12.116;2022-11-15T14:23:00;3.67;;;2.42;;
18507;SDS011;9383;50.928;12.116;2022-11-15T14:26:10;2.78;;;2.58;;
18507;SDS011;9383;50.928;12.116;2022-11-15T14:31:48;2.72;;;2.53;;
18507;SDS011;9383;50.928;12.116;2022-11-15T14:34:14;2.63;;;2.42;;
18507;SDS011;9383;50.928;12.116;2022-11-15T14:36:41;2.47;;;2.28;;
18507;SDS011;9383;50.928;12.116;2022-11-15T14:39:08;2.80;;;2.60;;
18507;SDS011;9383;50.928;12.116;2022-11-15T14:41:35;2.75;;;2.55;;
18507;SDS011;9383;50.928;12.116;2022-11-15T14:44:06;2.83;;;2.63;;
18507;SDS011;9383;50.928;12.116;2022-11-15T14:46:35;4.35;;;2.60;;
18507;SDS011;9383;50.928;12.116;2022-11-15T14:49:04;3.10;;;2.80;;
18507;SDS011;9383;50.928;12.116;2022-11-15T14:51:32;3.00;;;2.80;;
18507;SDS011;9383;50.928;12.116;2022-11-15T14:53:59;3.35;;;3.13;;
18507;SDS011;9383;50.928;12.116;2022-11-15T14:56:26;6.53;;;5.93;;
18507;SDS011;9383;50.928;12.116;2022-11-15T14:58:53;6.78;;;3.88;;
18507;SDS011;9383;50.928;12.116;2022-11-15T15:01:22;7.07;;;3.70;;
18507;SDS011;9383;50.928;12.116;2022-11-15T15:03:50;4.30;;;3.65;;
18507;SDS011;9383;50.928;12.116;2022-11-15T15:06:20;7.78;;;3.45;;
18507;SDS011;9383;50.928;12.116;2022-11-15T15:08:46;3.70;;;3.40;;
18507;SDS011;9383;50.928;12.116;2022-11-15T15:11:22;5.15;;;3.92;;
18507;SDS011;9383;50.928;12.116;2022-11-15T15:13:53;3.95;;;3.53;;
18507;SDS011;9383;50.928;12.116;2022-11-15T15:16:23;3.65;;;3.00;;
18507;SDS011;9383;50.928;12.116;2022-11-15T15:18:50;4.93;;;3.58;;
18507;SDS011;9383;50.928;12.116;2022-11-15T15:21:20;7.78;;;3.58;;
18507;SDS011;9383;50.928;12.116;2022-11-15T15:23:49;3.47;;;3.15;;
18507;SDS011;9383;50.928;12.116;2022-11-15T15:26:18;4.32;;;2.85;;
18507;SDS011;9383;50.928;12.116;2022-11-15T15:28:45;5.32;;;2.83;;
18507;SDS011;9383;50.928;12.116;2022-11-15T15:31:14;4.15;;;3.40;;
18507;SDS011;9383;50.928;12.116;2022-11-15T15:33:41;6.20;;;3.00;;
18507;SDS011;9383;50.928;12.116;2022-11-15T15:36:11;3.03;;;2.75;;
18507;SDS011;9383;50.928;12.116;2022-11-15T15:38:39;3.67;;;2.60;;
18507;SDS011;9383;50.928;12.116;2022-11-15T15:41:13;3.42;;;2.90;;
18507;SDS011;9383;50.928;12.116;2022-11-15T15:43:41;3.00;;;2.67;;
18507;SDS011;9383;50.928;12.116;2022-11-15T15:46:09;5.10;;;2.88;;
18507;SDS011;9383;50.928;12.116;2022-11-15T15:48:40;5.28;;;3.13;;
18507;SDS011;9383;50.928;12.116;2022-11-15T15:51:07;2.83;;;2.63;;
18507;SDS011;9383;50.928;12.116;2022-11-15T15:53:34;2.63;;;2.42;;
18507;SDS011;9383;50.928;12.116;2022-11-15T15:56:00;2.83;;;2.63;;
18507;SDS011;9383;50.928;12.116;2022-11-15T15:58:28;2.90;;;2.60;;
18507;SDS011;9383;50.928;12.116;2022-11-15T16:00:54;4.68;;;2.83;;
18507;SDS011;9383;50.928;12.116;2022-11-15T16:03:21;3.35;;;2.85;;
18507;SDS011;9383;50.928;12.116;2022-11-15T16:05:49;4.95;;;3.60;;
18507;SDS011;9383;50.928;12.116;2022-11-15T16:08:20;3.70;;;3.40;;
18507;SDS011;9383;50.928;12.116;2022-11-15T16:10:49;2.95;;;2.75;;
18507;SDS011;9383;50.928;12.116;2022-11-15T16:13:16;5.95;;;5.18;;
18507;SDS011;9383;50.928;12.116;2022-11-15T16:15:43;5.35;;;4.65;;
18507;SDS011;9383;50.928;12.116;2022-11-15T16:18:15;5.25;;;4.75;;
18507;SDS011;9383;50.928;12.116;2022-11-15T16:20:43;4.15;;;3.72;;
18507;SDS011;9383;50.928;12.116;2022-11-15T16:23:12;5.13;;;4.63;;
18507;SDS011;9383;50.928;12.116;2022-11-15T16:25:45;5.20;;;4.45;;
18507;SDS011;9383;50.928;12.116;2022-11-15T16:28:21;7.38;;;5.53;;
18507;SDS011;9383;50.928;12.116;2022-11-15T16:30:48;7.03;;;6.10;;
18507;SDS011;9383;50.928;12.116;2022-11-15T16:33:24;6.18;;;5.57;;
18507;SDS011;9383;50.928;12.116;2022-11-15T16:35:50;5.85;;;4.47;;
18507;SDS011;9383;50.928;12.116;2022-11-15T16:38:17;9.13;;;4.70;;
18507;SDS011;9383;50.928;12.116;2022-11-15T16:40:43;5.03;;;4.63;;
18507;SDS011;9383;50.928;12.116;2022-11-15T16:43:13;6.57;;;5.97;;
18507;SDS011;9383;50.928;12.116;2022-11-15T16:45:40;5.28;;;4.78;;
18507;SDS011;9383;50.928;12.116;2022-11-15T16:48:09;7.53;;;6.80;;
18507;SDS011;9383;50.928;12.116;2022-11-15T16:50:47;4.85;;;4.45;;
18507;SDS011;9383;50.928;12.116;2022-11-15T16:53:13;3.78;;;3.47;;
18507;SDS011;9383;50.928;12.116;2022-11-15T16:58:44;4.28;;;3.88;;
18507;SDS011;9383;50.928;12.116;2022-11-15T17:01:15;4.53;;;3.60;;